Time;durP1;ratioP1;P1;durP2;ratioP2;P2;SDS_P1;SDS_P2;PMS_P1;PMS_P2;Temp;Humidity;BMP_temperature;BMP_pressure;BME280_temperature;BME280_humidity;BME280_pressure;Samples;Min_cycle;Max_cycle;Signal;HPM_P1;HPM_P2
2021/11/27 00:01:40;;;;;;;11.17;6.73;;;1.10;99.90;;;;;;5022298;28;20543;-60
2021/11/27 00:04:06;;;;;;;10.47;6.57;;;1.10;99.90;;;;;;5025270;28;20982;-60
2021/11/27 00:06:32;;;;;;;15.00;8.30;;;1.10;99.90;;;;;;5026144;28;20413;-60
2021/11/27 00:08:58;;;;;;;13.17;7.57;;;1.10;99.90;;;;;;5024522;28;20432;-60
2021/11/27 00:11:25;;;;;;;13.03;7.90;;;1.10;99.90;;;;;;5027000;28;20467;-59
2021/11/27 00:13:51;;;;;;;12.00;6.97;;;1.10;99.90;;;;;;5021336;28;20206;-60
2021/11/27 00:16:17;;;;;;;11.20;7.27;;;1.10;99.90;;;;;;5023733;28;20479;-61
2021/11/27 00:18:44;;;;;;;11.37;7.37;;;1.10;99.90;;;;;;5025092;28;20436;-58
2021/11/27 00:21:13;;;;;;;12.40;7.27;;;1.10;99.90;;;;;;5023494;28;20469;-61
2021/11/27 00:23:40;;;;;;;12.47;8.13;;;1.10;99.90;;;;;;5022794;28;20439;-61
2021/11/27 00:26:09;;;;;;;10.57;6.90;;;1.10;99.90;;;;;;5028592;28;20520;-58
2021/11/27 00:28:35;;;;;;;13.87;8.10;;;1.10;99.90;;;;;;5022449;28;20421;-62
2021/11/27 00:31:09;;;;;;;12.67;7.90;;;1.10;99.90;;;;;;5015116;28;20514;-60
2021/11/27 00:33:35;;;;;;;11.93;7.47;;;1.00;99.90;;;;;;5024687;28;20181;-61
2021/11/27 00:36:01;;;;;;;11.40;7.23;;;1.00;99.90;;;;;;5024025;28;20429;-62
2021/11/27 00:38:27;;;;;;;12.37;7.97;;;0.90;99.90;;;;;;5026947;28;20213;-59
2021/11/27 00:40:54;;;;;;;12.10;7.37;;;0.90;99.90;;;;;;5023657;28;20468;-60
2021/11/27 00:43:20;;;;;;;14.67;7.57;;;0.90;99.90;;;;;;5022124;28;20438;-61
2021/11/27 00:45:47;;;;;;;13.77;7.70;;;0.80;99.90;;;;;;5025081;28;20523;-61
2021/11/27 00:48:15;;;;;;;12.10;6.17;;;0.80;99.90;;;;;;5022748;28;20432;-60
2021/11/27 00:50:48;;;;;;;11.30;7.00;;;0.90;99.90;;;;;;5021392;28;20466;-60
2021/11/27 00:53:14;;;;;;;11.23;6.37;;;0.90;99.90;;;;;;5019838;28;20437;-61
2021/11/27 00:55:41;;;;;;;15.53;6.60;;;0.90;99.90;;;;;;5023338;28;20428;-61
2021/11/27 00:58:07;;;;;;;10.23;6.17;;;0.90;99.90;;;;;;5022164;28;20428;-60
2021/11/27 01:00:41;;;;;;;8.83;6.43;;;0.90;99.90;;;;;;5021734;28;20490;-60
2021/11/27 01:03:09;;;;;;;12.90;6.40;;;0.90;99.90;;;;;;5023082;28;20433;-61
2021/11/27 01:05:36;;;;;;;9.50;5.63;;;0.90;99.90;;;;;;5025771;28;20882;-60
2021/11/27 01:08:02;;;;;;;10.60;6.67;;;0.90;99.90;;;;;;5022554;28;20467;-60
2021/11/27 01:10:31;;;;;;;11.93;6.73;;;0.90;99.90;;;;;;5021131;28;20530;-60
2021/11/27 01:12:57;;;;;;;10.47;5.90;;;0.80;99.90;;;;;;5025243;28;20511;-60
2021/11/27 01:15:28;;;;;;;9.53;6.10;;;0.80;99.90;;;;;;5020223;28;20529;-60
2021/11/27 01:17:54;;;;;;;9.90;6.30;;;0.70;99.90;;;;;;5026409;28;20245;-59
2021/11/27 01:20:25;;;;;;;10.73;6.50;;;0.70;99.90;;;;;;5022688;28;21011;-61
2021/11/27 01:22:52;;;;;;;10.37;6.53;;;0.70;99.90;;;;;;5023262;28;20478;-61
2021/11/27 01:25:19;;;;;;;7.50;5.33;;;0.70;99.90;;;;;;5022648;28;20439;-60
2021/11/27 01:27:47;;;;;;;8.97;6.27;;;0.60;99.90;;;;;;5029473;28;20462;-60
2021/11/27 01:30:14;;;;;;;11.20;6.13;;;0.60;99.90;;;;;;5024297;28;20485;-60
2021/11/27 01:32:40;;;;;;;9.00;5.63;;;0.60;99.90;;;;;;5028922;28;20450;-60
2021/11/27 01:35:06;;;;;;;10.17;6.00;;;0.60;99.90;;;;;;5028814;28;20437;-61
2021/11/27 01:37:34;;;;;;;10.97;5.77;;;0.60;99.90;;;;;;5026326;28;20818;-60
2021/11/27 01:40:01;;;;;;;9.70;6.23;;;0.50;99.90;;;;;;5026664;28;20994;-61
2021/11/27 01:42:27;;;;;;;11.10;6.13;;;0.50;99.90;;;;;;5028674;28;20969;-61
2021/11/27 01:44:53;;;;;;;13.30;5.67;;;0.50;99.90;;;;;;5024506;28;20975;-60
2021/11/27 01:47:19;;;;;;;13.90;7.43;;;0.50;99.90;;;;;;5024039;28;20448;-60
2021/11/27 01:49:44;;;;;;;14.60;6.80;;;0.50;99.90;;;;;;5027065;28;20270;-61
2021/11/27 01:52:11;;;;;;;10.27;5.93;;;0.60;99.90;;;;;;5026010;28;20430;-60
2021/11/27 01:54:37;;;;;;;9.90;5.80;;;0.60;99.90;;;;;;5026614;28;20175;-60
2021/11/27 01:57:05;;;;;;;10.57;6.40;;;0.60;99.90;;;;;;5024416;28;20467;-60
2021/11/27 01:59:33;;;;;;;8.70;5.70;;;0.60;99.90;;;;;;5024827;28;20494;-60
2021/11/27 02:02:00;;;;;;;9.37;5.40;;;0.60;99.90;;;;;;5026763;28;20466;-60
2021/11/27 02:04:27;;;;;;;11.50;5.73;;;0.60;99.90;;;;;;5019625;28;20775;-60
2021/11/27 02:06:53;;;;;;;8.50;5.33;;;0.60;99.90;;;;;;5027556;28;20449;-60
2021/11/27 02:09:26;;;;;;;11.70;5.63;;;0.60;99.90;;;;;;5029867;28;20424;-60
2021/11/27 02:11:53;;;;;;;7.87;5.20;;;0.50;99.90;;;;;;5029569;28;20469;-60
2021/11/27 02:14:19;;;;;;;8.33;4.97;;;0.60;99.90;;;;;;5027888;28;20430;-60
2021/11/27 02:16:46;;;;;;;8.13;5.50;;;0.60;99.90;;;;;;5028307;28;20420;-60
2021/11/27 02:19:12;;;;;;;9.00;5.10;;;0.70;99.90;;;;;;5028089;28;20428;-61
2021/11/27 02:21:40;;;;;;;8.40;4.67;;;0.70;99.90;;;;;;5022844;28;20863;-61
2021/11/27 02:24:06;;;;;;;6.87;4.80;;;0.80;99.90;;;;;;5026364;28;20444;-59
2021/11/27 02:26:34;;;;;;;7.73;4.60;;;0.90;99.90;;;;;;5028406;28;20437;-60
2021/11/27 02:29:04;;;;;;;5.50;4.40;;;0.90;99.90;;;;;;5028488;28;20441;-60
2021/11/27 02:31:33;;;;;;;8.90;4.53;;;1.00;99.90;;;;;;5022328;28;21115;-60
2021/11/27 02:33:58;;;;;;;5.67;4.43;;;1.00;99.90;;;;;;5024241;28;20434;-61
2021/11/27 02:36:26;;;;;;;8.30;5.00;;;1.10;99.90;;;;;;5024405;28;20432;-59
2021/11/27 02:38:56;;;;;;;8.03;4.93;;;1.10;99.90;;;;;;5022793;28;20176;-60
2021/11/27 02:41:25;;;;;;;7.43;4.93;;;1.10;99.90;;;;;;5024540;28;20908;-60
2021/11/27 02:43:50;;;;;;;7.77;4.53;;;1.20;99.90;;;;;;5028054;28;20456;-61
2021/11/27 02:46:16;;;;;;;9.53;4.70;;;1.20;99.90;;;;;;5028177;28;20436;-61
2021/11/27 02:48:42;;;;;;;8.03;5.30;;;1.20;99.90;;;;;;5029142;28;20180;-61
2021/11/27 02:51:09;;;;;;;9.17;5.30;;;1.20;99.90;;;;;;5026001;28;20234;-58
2021/11/27 02:53:35;;;;;;;8.10;5.70;;;1.20;99.90;;;;;;5027204;28;20429;-60
2021/11/27 02:56:02;;;;;;;7.77;5.47;;;1.20;99.90;;;;;;5025485;28;20521;-61
2021/11/27 02:58:28;;;;;;;10.53;5.47;;;1.20;99.90;;;;;;5025549;28;20494;-60
2021/11/27 03:00:58;;;;;;;7.10;4.87;;;1.20;99.90;;;;;;5025935;28;20459;-59
2021/11/27 03:03:24;;;;;;;9.73;5.33;;;1.20;99.90;;;;;;5025911;28;20439;-59
2021/11/27 03:05:51;;;;;;;7.80;5.10;;;1.20;99.90;;;;;;5022270;28;21077;-60
2021/11/27 03:08:17;;;;;;;8.97;5.20;;;1.20;99.90;;;;;;5022594;28;20437;-61
2021/11/27 03:10:44;;;;;;;10.00;5.67;;;1.20;99.90;;;;;;5019513;28;20467;-61
2021/11/27 03:13:10;;;;;;;8.70;5.43;;;1.30;99.90;;;;;;5021530;28;20443;-60
2021/11/27 03:15:42;;;;;;;8.73;5.13;;;1.30;99.90;;;;;;5021294;28;20434;-59
2021/11/27 03:18:09;;;;;;;8.67;5.00;;;1.30;99.90;;;;;;5023424;28;20408;-60
2021/11/27 03:20:35;;;;;;;8.27;5.07;;;1.30;99.90;;;;;;5019553;28;20814;-59
2021/11/27 03:23:01;;;;;;;8.87;5.10;;;1.30;99.90;;;;;;5018705;28;20437;-61
2021/11/27 03:25:26;;;;;;;7.97;5.30;;;1.30;99.90;;;;;;5019569;28;20265;-60
2021/11/27 03:27:52;;;;;;;9.17;5.10;;;1.30;99.90;;;;;;5020615;28;20528;-60
2021/11/27 03:30:19;;;;;;;11.90;5.23;;;1.30;99.90;;;;;;5020953;28;20292;-61
2021/11/27 03:32:45;;;;;;;9.20;5.20;;;1.30;99.90;;;;;;5018893;28;20778;-61
2021/11/27 03:35:14;;;;;;;9.90;5.70;;;1.30;99.90;;;;;;5021368;28;20506;-62
2021/11/27 03:37:41;;;;;;;6.77;4.93;;;1.30;99.90;;;;;;5019681;28;20812;-61
2021/11/27 03:40:08;;;;;;;9.20;5.13;;;1.30;99.90;;;;;;5018457;28;20445;-61
2021/11/27 03:42:33;;;;;;;7.93;5.30;;;1.40;99.90;;;;;;5020867;28;20803;-61
2021/11/27 03:45:00;;;;;;;7.70;5.60;;;1.40;99.90;;;;;;5002367;28;20442;-61
2021/11/27 03:47:26;;;;;;;8.83;5.17;;;1.40;99.90;;;;;;5020109;28;20182;-60
2021/11/27 03:49:53;;;;;;;8.70;5.07;;;1.40;99.90;;;;;;5018254;28;20433;-60
2021/11/27 03:52:19;;;;;;;7.83;5.00;;;1.40;99.90;;;;;;5022134;28;20448;-60
2021/11/27 03:54:46;;;;;;;9.97;4.80;;;1.40;99.90;;;;;;5020499;28;20494;-59
2021/11/27 03:57:12;;;;;;;9.83;4.50;;;1.40;99.90;;;;;;5017920;28;21222;-61
2021/11/27 03:59:38;;;;;;;7.27;4.87;;;1.40;99.90;;;;;;5020134;28;20430;-60
2021/11/27 04:02:05;;;;;;;5.60;4.10;;;1.40;99.90;;;;;;5021753;28;20787;-60
2021/11/27 04:04:31;;;;;;;6.50;4.40;;;1.40;99.90;;;;;;5021872;28;20440;-60
2021/11/27 04:06:57;;;;;;;6.63;4.23;;;1.40;99.90;;;;;;5021537;28;20428;-60
2021/11/27 04:09:23;;;;;;;6.23;4.20;;;1.40;99.90;;;;;;5021027;28;20425;-61
2021/11/27 04:11:49;;;;;;;5.00;4.03;;;1.40;99.90;;;;;;5019458;28;20419;-60
2021/11/27 04:14:15;;;;;;;4.80;3.97;;;1.40;99.90;;;;;;5018862;28;20527;-59
2021/11/27 04:16:40;;;;;;;6.93;4.47;;;1.40;99.90;;;;;;5023638;28;20605;-60
2021/11/27 04:19:06;;;;;;;7.97;4.47;;;1.40;99.90;;;;;;5022543;28;20174;-60
2021/11/27 04:21:32;;;;;;;6.20;4.00;;;1.50;99.90;;;;;;5018627;28;20249;-61
2021/11/27 04:23:58;;;;;;;7.70;4.47;;;1.50;99.90;;;;;;5020142;28;20952;-60
2021/11/27 04:26:24;;;;;;;8.40;3.73;;;1.50;99.90;;;;;;5019372;28;20182;-60
2021/11/27 04:28:50;;;;;;;4.40;3.73;;;1.50;99.90;;;;;;5021948;28;20279;-60
2021/11/27 04:31:17;;;;;;;5.07;3.57;;;1.50;99.90;;;;;;5016441;28;20893;-61
2021/11/27 04:33:47;;;;;;;6.80;3.30;;;1.50;99.90;;;;;;5021970;28;20468;-61
2021/11/27 04:36:17;;;;;;;3.20;2.90;;;1.50;99.90;;;;;;5016265;28;20988;-60
2021/11/27 04:38:43;;;;;;;4.10;3.47;;;1.50;99.90;;;;;;5021139;28;20963;-61
2021/11/27 04:41:08;;;;;;;3.60;3.30;;;1.50;99.90;;;;;;5019999;28;20464;-61
2021/11/27 04:43:34;;;;;;;4.37;3.20;;;1.50;99.90;;;;;;5020857;28;20433;-60
2021/11/27 04:46:00;;;;;;;4.93;3.47;;;1.50;99.90;;;;;;5018467;28;20178;-60
2021/11/27 04:48:26;;;;;;;4.23;3.20;;;1.50;99.90;;;;;;5020206;28;20262;-60
2021/11/27 04:50:52;;;;;;;5.40;2.83;;;1.50;99.90;;;;;;5020636;28;20595;-60
2021/11/27 04:53:18;;;;;;;4.00;3.60;;;1.50;99.90;;;;;;5019642;28;20673;-58
2021/11/27 04:55:44;;;;;;;5.07;3.33;;;1.50;99.90;;;;;;5017049;28;20442;-61
2021/11/27 04:58:09;;;;;;;5.83;3.50;;;1.50;99.90;;;;;;5017814;28;20952;-61
2021/11/27 05:00:40;;;;;;;6.10;3.43;;;1.50;99.90;;;;;;5020718;28;20492;-60
2021/11/27 05:03:06;;;;;;;5.73;3.70;;;1.50;99.90;;;;;;5021587;28;20448;-60
2021/11/27 05:05:32;;;;;;;5.83;3.80;;;1.50;99.90;;;;;;5023536;28;20438;-61
2021/11/27 05:07:58;;;;;;;5.20;3.50;;;1.50;99.90;;;;;;5022467;28;20926;-60
2021/11/27 05:10:25;;;;;;;6.80;3.93;;;1.50;99.90;;;;;;5023103;28;20602;-61
2021/11/27 05:12:51;;;;;;;5.23;3.70;;;1.50;99.90;;;;;;5022330;28;20438;-59
2021/11/27 05:15:17;;;;;;;5.40;3.90;;;1.50;99.90;;;;;;5018867;28;20464;-60
2021/11/27 05:17:44;;;;;;;7.30;4.60;;;1.50;99.90;;;;;;5024996;28;20444;-60
2021/11/27 05:20:10;;;;;;;9.20;5.30;;;1.50;99.90;;;;;;5023351;28;20456;-60
2021/11/27 05:22:37;;;;;;;6.37;4.40;;;1.50;99.90;;;;;;5019278;28;20441;-60
2021/11/27 05:25:03;;;;;;;9.53;5.07;;;1.50;99.90;;;;;;5022838;28;20428;-60
2021/11/27 05:27:29;;;;;;;10.13;5.67;;;1.50;99.90;;;;;;5022703;28;20485;-61
2021/11/27 05:29:55;;;;;;;8.30;5.30;;;1.40;99.90;;;;;;5038418;22;20482;-63
2021/11/27 05:32:26;;;;;;;6.50;4.77;;;1.40;99.90;;;;;;5045740;28;20431;-67
2021/11/27 05:34:53;;;;;;;8.80;5.57;;;1.40;99.90;;;;;;5039445;28;20418;-58
2021/11/27 05:37:20;;;;;;;8.20;5.43;;;1.40;99.90;;;;;;5033212;28;20409;-61
2021/11/27 05:39:47;;;;;;;7.50;4.70;;;1.40;99.90;;;;;;5036352;28;20437;-61
2021/11/27 05:42:14;;;;;;;7.80;5.20;;;1.40;99.90;;;;;;5015144;28;20446;-59
2021/11/27 05:44:41;;;;;;;8.63;5.80;;;1.30;99.90;;;;;;5026853;28;20434;-59
2021/11/27 05:47:07;;;;;;;6.83;4.87;;;1.30;99.90;;;;;;5028200;28;20437;-59
2021/11/27 05:49:32;;;;;;;8.67;5.30;;;1.30;99.90;;;;;;5028291;28;20431;-59
2021/11/27 05:51:58;;;;;;;6.80;4.90;;;1.40;99.90;;;;;;5028667;28;20223;-61
2021/11/27 05:54:24;;;;;;;5.80;4.67;;;1.40;99.90;;;;;;5028074;28;20194;-61
2021/11/27 05:56:49;;;;;;;8.03;4.93;;;1.40;99.90;;;;;;5022989;28;20485;-61
2021/11/27 05:59:15;;;;;;;10.17;4.90;;;1.40;99.90;;;;;;5024081;28;20186;-64
2021/11/27 06:01:41;;;;;;;9.10;5.53;;;1.30;99.90;;;;;;5012679;28;20230;-59
2021/11/27 06:04:07;;;;;;;5.87;4.53;;;1.30;99.90;;;;;;5007412;28;20250;-61
2021/11/27 06:06:33;;;;;;;6.37;4.60;;;1.40;99.90;;;;;;5012765;28;20195;-59
2021/11/27 06:09:00;;;;;;;7.23;5.03;;;1.40;99.90;;;;;;5011430;28;20184;-60
2021/11/27 06:11:26;;;;;;;8.67;5.30;;;1.40;99.90;;;;;;5009309;28;20631;-61
2021/11/27 06:13:52;;;;;;;7.30;4.87;;;1.40;99.90;;;;;;5005198;28;20838;-59
2021/11/27 06:16:18;;;;;;;6.60;4.77;;;1.40;99.90;;;;;;5012681;28;20425;-60
2021/11/27 06:18:44;;;;;;;5.50;4.30;;;1.40;99.90;;;;;;5001393;28;20436;-58
2021/11/27 06:21:09;;;;;;;7.13;4.77;;;1.40;99.90;;;;;;5009831;28;20457;-59
2021/11/27 06:23:35;;;;;;;7.20;4.10;;;1.40;99.90;;;;;;5008956;28;20254;-59
2021/11/27 06:26:01;;;;;;;5.30;3.90;;;1.40;99.90;;;;;;5004451;28;20667;-60
2021/11/27 06:28:27;;;;;;;5.63;4.13;;;1.40;99.90;;;;;;5007988;28;20441;-60
2021/11/27 06:30:53;;;;;;;6.13;4.20;;;1.50;99.90;;;;;;4999024;28;20992;-61
2021/11/27 06:33:19;;;;;;;4.60;3.70;;;1.50;99.90;;;;;;5006264;28;20450;-61
2021/11/27 06:35:45;;;;;;;6.07;3.80;;;1.50;99.90;;;;;;5004855;28;20187;-60
2021/11/27 06:38:11;;;;;;;4.37;3.70;;;1.50;99.90;;;;;;5008577;28;20930;-59
2021/11/27 06:40:37;;;;;;;6.13;4.30;;;1.50;99.90;;;;;;5006048;28;21001;-59
2021/11/27 06:43:03;;;;;;;9.30;4.33;;;1.50;99.90;;;;;;5008170;28;20198;-60
2021/11/27 06:45:30;;;;;;;5.87;4.40;;;1.50;99.90;;;;;;5013770;28;20427;-61
2021/11/27 06:47:57;;;;;;;5.60;4.10;;;1.50;99.90;;;;;;5003738;28;20433;-58
2021/11/27 06:50:23;;;;;;;6.73;4.63;;;1.50;99.90;;;;;;5008750;28;20888;-61
2021/11/27 06:52:48;;;;;;;6.77;4.80;;;1.40;99.90;;;;;;5011011;28;20440;-60
2021/11/27 06:55:14;;;;;;;5.60;3.83;;;1.40;99.90;;;;;;4999344;28;20430;-57
2021/11/27 06:57:40;;;;;;;5.40;4.00;;;1.40;99.90;;;;;;5003070;28;20796;-59
2021/11/27 07:00:07;;;;;;;6.13;4.30;;;1.40;99.90;;;;;;5001434;28;20257;-61
2021/11/27 07:02:33;;;;;;;5.80;4.47;;;1.40;99.90;;;;;;4999654;28;20434;-59
2021/11/27 07:04:59;;;;;;;8.57;4.93;;;1.50;99.90;;;;;;5002113;28;21119;-59
2021/11/27 07:07:25;;;;;;;8.70;4.10;;;1.50;99.90;;;;;;4996242;28;20211;-60
2021/11/27 07:09:51;;;;;;;8.17;4.60;;;1.50;99.90;;;;;;4997420;28;21035;-61
2021/11/27 07:12:17;;;;;;;7.53;5.43;;;1.50;99.90;;;;;;4999585;28;20186;-59
2021/11/27 07:14:42;;;;;;;7.50;5.07;;;1.50;99.90;;;;;;5002541;28;20445;-59
2021/11/27 07:17:08;;;;;;;9.47;5.57;;;1.60;99.90;;;;;;5003693;28;20184;-55
2021/11/27 07:19:33;;;;;;;10.03;5.80;;;1.60;99.90;;;;;;5002620;28;20771;-57
2021/11/27 07:22:00;;;;;;;7.97;5.17;;;1.60;99.90;;;;;;5003520;28;20178;-59
2021/11/27 07:24:26;;;;;;;8.47;5.30;;;1.60;99.90;;;;;;5007249;28;20195;-59
2021/11/27 07:26:52;;;;;;;7.70;5.50;;;1.60;99.90;;;;;;5009663;28;20441;-57
2021/11/27 07:29:17;;;;;;;8.97;5.27;;;1.60;99.90;;;;;;5007428;28;20535;-60
2021/11/27 07:31:43;;;;;;;7.00;5.10;;;1.50;99.90;;;;;;5006243;28;20808;-59
2021/11/27 07:34:10;;;;;;;9.83;5.10;;;1.50;99.90;;;;;;5010275;28;20658;-62
2021/11/27 07:36:36;;;;;;;8.80;5.97;;;1.50;99.90;;;;;;5027916;28;20410;-61
2021/11/27 07:39:01;;;;;;;11.10;6.27;;;1.50;99.90;;;;;;5031926;28;20686;-61
2021/11/27 07:41:27;;;;;;;10.13;6.87;;;1.60;99.90;;;;;;5014988;28;20254;-57
2021/11/27 07:43:53;;;;;;;12.33;8.77;;;1.60;99.90;;;;;;5008302;28;20225;-59
2021/11/27 07:46:18;;;;;;;9.93;6.83;;;1.60;99.90;;;;;;5008489;28;20239;-58
2021/11/27 07:48:44;;;;;;;8.60;5.50;;;1.60;99.90;;;;;;5008056;28;20200;-60
2021/11/27 07:51:10;;;;;;;6.97;4.90;;;1.60;99.90;;;;;;5009488;28;20207;-59
2021/11/27 07:53:37;;;;;;;4.97;4.00;;;1.60;99.90;;;;;;5007491;28;20584;-58
2021/11/27 07:56:04;;;;;;;5.50;4.20;;;1.60;99.90;;;;;;5007892;28;20206;-59
2021/11/27 07:58:30;;;;;;;6.07;4.90;;;1.60;99.90;;;;;;5004652;28;20500;-59
2021/11/27 08:00:56;;;;;;;5.70;4.60;;;1.70;99.90;;;;;;5007907;28;20459;-57
2021/11/27 08:03:21;;;;;;;6.40;4.07;;;1.70;99.90;;;;;;5008797;28;20265;-59
2021/11/27 08:05:47;;;;;;;5.93;3.80;;;1.70;99.90;;;;;;5005360;28;20187;-58
2021/11/27 08:08:13;;;;;;;4.87;4.10;;;1.70;99.90;;;;;;5010272;28;20271;-59
2021/11/27 08:10:39;;;;;;;7.83;4.03;;;1.80;99.90;;;;;;5009705;28;20213;-59
2021/11/27 08:13:04;;;;;;;4.17;3.73;;;1.80;99.90;;;;;;5008777;28;20196;-58
2021/11/27 08:15:30;;;;;;;3.90;3.50;;;1.80;99.90;;;;;;4990594;28;20205;-59
2021/11/27 08:17:56;;;;;;;4.07;3.67;;;1.90;99.90;;;;;;4999098;28;20236;-59
2021/11/27 08:20:22;;;;;;;6.10;4.50;;;1.90;99.90;;;;;;5004405;28;20215;-58
2021/11/27 08:22:48;;;;;;;5.97;4.50;;;2.00;99.90;;;;;;5006950;28;20196;-59
2021/11/27 08:25:14;;;;;;;6.60;4.17;;;2.00;99.90;;;;;;5007732;28;20600;-57
2021/11/27 08:27:40;;;;;;;6.90;4.50;;;2.00;99.90;;;;;;5008702;28;20434;-57
2021/11/27 08:30:08;;;;;;;8.03;5.10;;;2.00;99.90;;;;;;5024350;28;20238;-58
2021/11/27 08:32:34;;;;;;;7.10;4.87;;;2.10;99.90;;;;;;5030224;28;20179;-59
2021/11/27 08:34:59;;;;;;;4.90;3.50;;;2.10;99.90;;;;;;5022302;28;20469;-57
2021/11/27 08:37:25;;;;;;;4.23;3.70;;;2.10;99.90;;;;;;5007405;28;20249;-58
2021/11/27 08:39:52;;;;;;;7.93;3.97;;;2.10;99.90;;;;;;5022049;28;20200;-59
2021/11/27 08:42:21;;;;;;;7.83;4.20;;;2.20;99.90;;;;;;5023248;28;20442;-58
2021/11/27 08:44:51;;;;;;;3.60;3.30;;;2.20;99.90;;;;;;5015646;28;20443;-59
2021/11/27 08:47:17;;;;;;;5.27;3.70;;;2.20;99.90;;;;;;5012185;28;20532;-58
2021/11/27 08:49:44;;;;;;;4.37;3.60;;;2.20;99.90;;;;;;5011217;28;20981;-57
2021/11/27 08:52:10;;;;;;;3.47;3.17;;;2.20;99.90;;;;;;5013179;28;20508;-59
2021/11/27 08:54:35;;;;;;;4.67;3.80;;;2.30;99.90;;;;;;5011161;28;20455;-57
2021/11/27 08:57:01;;;;;;;4.73;4.20;;;2.30;99.90;;;;;;5009312;28;20831;-58
2021/11/27 08:59:28;;;;;;;4.70;4.20;;;2.30;99.90;;;;;;5008635;28;20222;-58
2021/11/27 09:01:54;;;;;;;5.10;4.13;;;2.30;99.90;;;;;;5012855;28;20572;-59
2021/11/27 09:04:20;;;;;;;5.50;4.33;;;2.40;99.90;;;;;;5018536;28;20431;-61
2021/11/27 09:06:46;;;;;;;11.00;6.40;;;2.40;99.90;;;;;;5029593;28;20190;-60
2021/11/27 09:09:12;;;;;;;6.60;4.73;;;2.40;99.90;;;;;;5030910;28;20408;-61
2021/11/27 09:11:38;;;;;;;5.63;5.03;;;2.50;99.90;;;;;;5031138;28;20464;-60
2021/11/27 09:14:05;;;;;;;6.67;4.90;;;2.50;99.90;;;;;;5028666;28;20425;-59
2021/11/27 09:16:31;;;;;;;10.33;4.80;;;2.50;99.90;;;;;;5017373;28;20491;-58
2021/11/27 09:18:57;;;;;;;7.23;5.17;;;2.60;99.90;;;;;;5009423;28;20549;-57
2021/11/27 09:21:23;;;;;;;5.90;4.63;;;2.60;99.90;;;;;;5007688;28;21411;-59
2021/11/27 09:23:48;;;;;;;7.67;5.80;;;2.60;99.90;;;;;;5013850;28;20427;-57
2021/11/27 09:26:15;;;;;;;5.90;4.03;;;2.70;99.90;;;;;;5012993;28;20663;-59
2021/11/27 09:28:42;;;;;;;5.50;4.10;;;2.80;99.90;;;;;;5028222;28;20197;-59
2021/11/27 09:31:07;;;;;;;4.53;3.60;;;2.90;99.90;;;;;;5028696;28;20477;-60
2021/11/27 09:33:33;;;;;;;5.53;3.60;;;2.90;99.90;;;;;;5030984;28;20415;-58
2021/11/27 09:36:01;;;;;;;7.60;3.83;;;3.00;99.90;;;;;;5026622;28;20165;-59
2021/11/27 09:38:28;;;;;;;5.27;3.40;;;3.20;99.90;;;;;;5008654;28;20188;-59
2021/11/27 09:41:10;;;;;;;3.40;2.90;;;3.40;99.90;;;;;;5007007;28;20457;-57
2021/11/27 09:43:41;;;;;;;2.57;2.37;;;3.70;99.90;;;;;;5006208;28;20522;-60
2021/11/27 09:46:07;;;;;;;3.87;2.50;;;3.90;99.90;;;;;;5006489;28;20446;-59
2021/11/27 09:48:33;;;;;;;2.73;2.40;;;4.20;99.90;;;;;;5003500;28;20438;-59
2021/11/27 09:50:58;;;;;;;3.30;2.60;;;4.40;99.90;;;;;;5011140;28;21015;-58
2021/11/27 09:53:26;;;;;;;4.83;3.40;;;4.50;99.90;;;;;;5009948;28;20222;-58
2021/11/27 09:55:51;;;;;;;4.07;3.10;;;4.40;99.90;;;;;;5009873;28;21197;-58
2021/11/27 09:58:18;;;;;;;10.20;2.43;;;4.40;99.90;;;;;;5008734;28;20511;-57
2021/11/27 10:00:44;;;;;;;2.10;1.90;;;4.40;99.90;;;;;;5008068;28;20199;-53
2021/11/27 10:03:11;;;;;;;2.73;2.10;;;4.40;99.90;;;;;;5011361;28;20783;-57
2021/11/27 10:05:37;;;;;;;2.83;2.63;;;4.50;99.90;;;;;;5010081;28;20442;-54
2021/11/27 10:08:03;;;;;;;3.03;2.60;;;4.40;99.90;;;;;;5013201;28;20431;-56
2021/11/27 10:10:29;;;;;;;2.77;2.50;;;4.40;99.90;;;;;;5007223;28;20465;-56
2021/11/27 10:12:55;;;;;;;3.83;2.80;;;4.50;99.90;;;;;;5011435;28;20432;-59
2021/11/27 10:15:20;;;;;;;2.90;2.60;;;4.50;99.90;;;;;;5010464;28;20185;-58
2021/11/27 10:17:46;;;;;;;2.60;1.97;;;4.50;99.90;;;;;;5011180;28;20203;-58
2021/11/27 10:20:15;;;;;;;2.90;2.43;;;4.40;99.90;;;;;;5010820;28;20604;-59
2021/11/27 10:22:42;;;;;;;2.70;2.23;;;4.30;99.90;;;;;;5010856;28;20173;-57
2021/11/27 10:25:37;;;;;;;3.30;1.93;;;4.30;99.90;;;;;;5008655;28;20463;-58
2021/11/27 10:28:08;;;;;;;5.47;2.07;;;4.20;99.90;;;;;;5009170;28;20529;-58
2021/11/27 10:30:58;;;;;;;2.47;2.10;;;4.10;99.90;;;;;;5008781;28;20477;-58
2021/11/27 10:33:25;;;;;;;3.67;2.70;;;3.90;99.90;;;;;;5017447;28;20503;-58
2021/11/27 10:35:57;;;;;;;3.93;3.00;;;3.70;99.90;;;;;;5032951;28;20427;-66
2021/11/27 10:38:37;;;;;;;4.13;2.70;;;3.60;99.90;;;;;;5016357;28;20442;-58
2021/11/27 10:41:03;;;;;;;5.63;2.90;;;3.60;99.90;;;;;;5010188;28;20493;-59
2021/11/27 10:43:30;;;;;;;4.33;3.13;;;3.50;99.90;;;;;;5008755;28;21803;-57
2021/11/27 10:45:55;;;;;;;6.07;3.20;;;3.50;99.90;;;;;;5009364;28;20282;-58
2021/11/27 10:48:26;;;;;;;3.70;3.23;;;3.40;99.90;;;;;;5009537;28;20528;-58
2021/11/27 10:50:55;;;;;;;4.90;3.27;;;3.40;99.90;;;;;;5007439;28;20699;-57
2021/11/27 10:53:28;;;;;;;3.30;3.00;;;3.30;99.90;;;;;;5008320;28;20419;-58
2021/11/27 10:56:11;;;;;;;4.73;2.80;;;3.20;99.90;;;;;;5008066;28;20729;-58
2021/11/27 10:59:02;;;;;;;3.17;2.87;;;3.20;99.90;;;;;;5008101;28;20415;-57
2021/11/27 11:01:28;;;;;;;3.90;3.07;;;3.30;99.90;;;;;;5007076;28;20458;-58
2021/11/27 11:03:54;;;;;;;3.70;2.97;;;3.20;99.90;;;;;;5000856;28;20444;-59
2021/11/27 11:06:22;;;;;;;3.23;2.70;;;3.20;99.90;;;;;;5005315;28;20181;-59
2021/11/27 11:08:49;;;;;;;9.47;4.23;;;3.20;99.90;;;;;;5008286;28;20439;-57
2021/11/27 11:11:26;;;;;;;3.77;2.47;;;3.20;99.90;;;;;;5009476;28;20459;-58
2021/11/27 11:14:00;;;;;;;2.40;2.20;;;3.20;99.90;;;;;;5003729;28;20439;-58
2021/11/27 11:16:29;;;;;;;4.90;2.50;;;3.20;99.90;;;;;;5004695;28;20442;-57
2021/11/27 11:19:20;;;;;;;3.40;2.60;;;3.20;99.90;;;;;;5002889;28;20448;-55
2021/11/27 11:22:09;;;;;;;2.30;2.10;;;3.30;99.90;;;;;;5001597;28;20514;-57
2021/11/27 11:24:44;;;;;;;4.93;2.97;;;3.30;99.90;;;;;;5002774;28;20529;-56
2021/11/27 11:27:11;;;;;;;2.47;2.23;;;3.30;99.90;;;;;;5009507;28;20434;-57
2021/11/27 11:29:48;;;;;;;3.17;2.30;;;3.30;99.90;;;;;;5001269;28;20440;-56
2021/11/27 11:32:21;;;;;;;2.60;2.37;;;3.30;99.90;;;;;;5030821;23;20517;-56
2021/11/27 11:34:49;;;;;;;4.27;3.03;;;3.30;99.90;;;;;;5006959;28;20438;-56
2021/11/27 11:37:15;;;;;;;3.20;2.13;;;3.40;99.90;;;;;;5003738;28;20545;-55
2021/11/27 11:39:41;;;;;;;2.83;2.03;;;3.40;99.90;;;;;;5005729;28;20956;-56
2021/11/27 11:42:08;;;;;;;5.80;2.10;;;3.50;99.90;;;;;;5013492;28;20242;-54
2021/11/27 11:44:35;;;;;;;4.23;1.70;;;3.40;99.90;;;;;;5015586;28;20441;-57
2021/11/27 11:47:01;;;;;;;10.03;2.03;;;3.50;99.90;;;;;;5006726;28;20402;-56
2021/11/27 11:49:27;;;;;;;2.07;1.60;;;3.60;99.90;;;;;;5005207;28;20419;-56
2021/11/27 11:52:19;;;;;;;2.10;1.73;;;3.90;99.90;;;;;;5014157;28;20496;-56
2021/11/27 11:54:46;;;;;;;1.57;1.40;;;4.10;99.90;;;;;;5004800;28;20443;-57
2021/11/27 11:57:12;;;;;;;1.60;1.50;;;4.20;99.90;;;;;;5007350;28;20459;-54
2021/11/27 11:59:40;;;;;;;1.90;1.50;;;4.20;99.90;;;;;;5010276;28;20411;-57
2021/11/27 12:02:12;;;;;;;1.63;1.30;;;4.20;99.90;;;;;;5043296;28;20556;-55
2021/11/27 12:05:00;;;;;;;6.87;1.67;;;4.10;99.90;;;;;;5025982;28;20434;-57
2021/11/27 12:07:53;;;;;;;3.20;1.37;;;4.10;99.90;;;;;;5029410;28;20432;-55
2021/11/27 12:10:20;;;;;;;1.47;1.30;;;4.10;99.90;;;;;;5013535;28;20460;-55
2021/11/27 12:13:05;;;;;;;3.63;1.43;;;4.00;99.90;;;;;;4999753;28;20566;-54
2021/11/27 12:15:39;;;;;;;1.20;1.10;;;3.90;99.90;;;;;;5005434;28;20489;-56
2021/11/27 12:18:06;;;;;;;1.43;1.33;;;3.80;99.90;;;;;;4988560;28;20517;-55
2021/11/27 12:20:46;;;;;;;1.20;1.17;;;3.80;99.90;;;;;;5018184;28;20512;-55
2021/11/27 12:23:27;;;;;;;1.40;1.30;;;3.70;99.90;;;;;;5018628;28;20491;-56
2021/11/27 12:26:08;;;;;;;2.90;1.10;;;3.70;99.90;;;;;;5010745;28;20442;-57
2021/11/27 12:28:35;;;;;;;1.23;1.13;;;3.70;99.90;;;;;;5011216;28;20489;-56
2021/11/27 12:31:05;;;;;;;1.83;1.10;;;3.70;99.90;;;;;;5018093;28;20983;-57
2021/11/27 12:33:46;;;;;;;1.17;1.07;;;3.80;99.90;;;;;;5017013;28;20438;-57
2021/11/27 12:36:27;;;;;;;1.20;1.10;;;3.80;99.90;;;;;;5017510;28;20430;-56
2021/11/27 12:38:58;;;;;;;1.63;1.53;;;3.80;99.90;;;;;;5015219;28;20411;-57
2021/11/27 12:41:36;;;;;;;1.00;1.00;;;3.80;99.90;;;;;;5016192;28;20443;-56
2021/11/27 12:44:19;;;;;;;1.27;1.27;;;3.80;99.90;;;;;;5022628;28;20434;-57
2021/11/27 12:46:57;;;;;;;1.83;1.50;;;3.80;99.90;;;;;;5013877;28;20492;-55
2021/11/27 12:49:34;;;;;;;1.67;1.20;;;3.90;99.90;;;;;;5001666;28;20458;-57
2021/11/27 12:52:21;;;;;;;1.30;1.20;;;4.00;97.80;;;;;;5012634;28;20471;-57
2021/11/27 12:54:48;;;;;;;1.47;1.33;;;4.00;98.20;;;;;;5003931;28;20474;-57
2021/11/27 12:57:16;;;;;;;1.00;0.90;;;4.00;98.70;;;;;;5010564;28;20424;-55
2021/11/27 12:59:46;;;;;;;1.53;0.80;;;4.00;98.00;;;;;;5000625;28;21000;-54